Time;durP1;ratioP1;P1;durP2;ratioP2;P2;SDS_P1;SDS_P2;PMS_P1;PMS_P2;Temp;Humidity;BMP_temperature;BMP_pressure;BME280_temperature;BME280_humidity;BME280_pressure;Samples;Min_cycle;Max_cycle;Signal;HPM_P1;HPM_P2
2022/06/12 00:02:04;;;;;;;5.50;4.73;;;21.70;74.60;;;;;;5067530;28;20213;-83
2022/06/12 00:04:31;;;;;;;5.07;4.67;;;21.70;74.40;;;;;;5045981;28;20221;-83
2022/06/12 00:07:01;;;;;;;6.03;4.70;;;21.70;74.40;;;;;;5055527;28;20205;-83
2022/06/12 00:09:28;;;;;;;7.00;4.60;;;21.70;74.50;;;;;;5080246;28;20212;-82
2022/06/12 00:11:55;;;;;;;7.00;4.47;;;21.70;74.70;;;;;;5071408;28;20268;-83
2022/06/12 00:14:23;;;;;;;4.73;3.93;;;21.60;75.00;;;;;;5057005;28;20202;-83
2022/06/12 00:16:52;;;;;;;5.13;3.90;;;21.60;75.00;;;;;;5069428;28;20232;-83
2022/06/12 00:19:20;;;;;;;5.23;3.90;;;21.60;74.80;;;;;;5075055;28;20202;-83
2022/06/12 00:21:48;;;;;;;4.03;3.63;;;21.60;75.10;;;;;;5077495;28;20323;-83
2022/06/12 00:24:19;;;;;;;5.77;3.53;;;21.60;75.10;;;;;;5049355;28;20222;-82
2022/06/12 00:26:50;;;;;;;4.37;3.30;;;21.50;74.70;;;;;;5059974;28;20209;-82
2022/06/12 00:29:27;;;;;;;4.00;3.63;;;21.50;74.70;;;;;;5058248;28;20298;-83
2022/06/12 00:32:01;;;;;;;4.47;3.70;;;21.50;74.60;;;;;;5059871;28;20210;-82
2022/06/12 00:34:38;;;;;;;10.53;4.67;;;21.50;74.70;;;;;;5053563;28;20228;-83
2022/06/12 00:37:06;;;;;;;9.03;4.63;;;21.40;75.00;;;;;;5068830;28;20232;-82
2022/06/12 00:39:33;;;;;;;9.33;4.17;;;21.40;75.10;;;;;;5074990;28;20602;-82
2022/06/12 00:42:02;;;;;;;4.30;3.50;;;21.40;75.00;;;;;;5064286;28;20228;-83
2022/06/12 00:44:39;;;;;;;4.30;3.90;;;21.40;74.90;;;;;;5065413;28;20214;-82
2022/06/12 00:47:10;;;;;;;7.07;3.17;;;21.40;75.00;;;;;;5063550;28;20213;-83
2022/06/12 00:49:50;;;;;;;16.70;3.37;;;21.30;74.90;;;;;;5077366;28;20210;-82
2022/06/12 00:52:37;;;;;;;7.43;3.80;;;21.30;74.90;;;;;;5078269;28;20209;-83
2022/06/12 00:55:37;;;;;;;5.10;3.77;;;21.30;75.00;;;;;;5050605;28;20220;-83
2022/06/12 00:58:12;;;;;;;6.57;3.27;;;21.30;75.10;;;;;;5070395;28;20645;-83
2022/06/12 01:00:40;;;;;;;4.77;3.43;;;21.30;75.20;;;;;;5050517;28;20636;-82
2022/06/12 01:03:09;;;;;;;4.10;3.30;;;21.20;75.40;;;;;;5069066;28;20213;-83
2022/06/12 01:08:24;;;;;;;5.23;3.20;;;21.20;75.80;;;;;;5068482;28;20202;-83
2022/06/12 01:10:57;;;;;;;6.43;3.17;;;21.10;76.00;;;;;;5051908;28;20201;-83
2022/06/12 01:13:35;;;;;;;5.93;3.37;;;21.10;76.20;;;;;;5068376;28;20659;-83
2022/06/12 01:16:07;;;;;;;4.57;2.90;;;21.10;76.40;;;;;;5070735;28;20213;-83
2022/06/12 01:18:41;;;;;;;4.30;3.40;;;21.10;76.50;;;;;;5084417;28;20205;-82
2022/06/12 01:21:39;;;;;;;3.23;2.93;;;21.10;76.50;;;;;;5081713;28;20202;-82
2022/06/12 01:24:54;;;;;;;22.67;3.30;;;21.00;76.30;;;;;;5066558;28;20236;-83
2022/06/12 01:27:33;;;;;;;4.80;3.13;;;21.00;76.30;;;;;;5024086;28;20284;-83
2022/06/12 01:30:03;;;;;;;3.63;3.20;;;21.00;76.40;;;;;;5021750;28;20215;-82
2022/06/12 01:32:33;;;;;;;6.27;3.80;;;20.90;76.60;;;;;;5050160;28;20209;-82
2022/06/12 01:35:06;;;;;;;4.10;3.70;;;20.90;76.70;;;;;;5054030;28;20248;-83
2022/06/12 01:37:58;;;;;;;5.67;3.90;;;20.80;76.80;;;;;;5069665;28;20294;-83
2022/06/12 01:40:58;;;;;;;8.33;3.47;;;20.80;77.10;;;;;;5067302;28;20551;-83
2022/06/12 01:43:54;;;;;;;17.70;3.60;;;20.70;77.30;;;;;;5069783;28;20263;-83
2022/06/12 01:46:40;;;;;;;9.27;3.20;;;20.70;77.90;;;;;;5088368;28;20205;-83
2022/06/12 01:49:29;;;;;;;4.37;3.13;;;20.60;78.30;;;;;;5088175;28;20209;-83
2022/06/12 01:52:09;;;;;;;7.33;3.03;;;20.60;78.70;;;;;;5082148;28;20212;-83
2022/06/12 01:54:46;;;;;;;4.17;3.27;;;20.60;78.80;;;;;;5085504;28;20235;-83
2022/06/12 01:57:20;;;;;;;3.00;2.70;;;20.60;78.80;;;;;;5059583;28;20199;-83
2022/06/12 01:59:54;;;;;;;3.87;3.00;;;20.60;78.60;;;;;;5084767;28;20202;-83
2022/06/12 02:02:34;;;;;;;9.43;2.83;;;20.60;78.50;;;;;;5046749;28;20226;-83
2022/06/12 02:05:25;;;;;;;3.90;3.10;;;20.50;78.60;;;;;;5070942;28;20253;-83
2022/06/12 02:07:59;;;;;;;3.43;2.57;;;20.50;78.40;;;;;;5064530;28;20265;-82
2022/06/12 02:10:40;;;;;;;5.60;2.90;;;20.50;78.20;;;;;;5080233;28;20237;-82
2022/06/12 02:13:45;;;;;;;3.07;2.67;;;20.50;78.10;;;;;;5087033;28;20205;-83
2022/06/12 02:16:21;;;;;;;8.40;3.17;;;20.50;78.50;;;;;;5013891;28;20239;-82
2022/06/12 02:18:57;;;;;;;5.97;2.90;;;20.40;78.60;;;;;;5065566;28;20216;-83
2022/06/12 02:21:59;;;;;;;5.00;2.97;;;20.40;78.50;;;;;;5056629;28;20207;-83
2022/06/12 02:24:36;;;;;;;3.47;2.70;;;20.30;78.10;;;;;;5058134;28;20213;-83
2022/06/12 02:27:05;;;;;;;3.73;3.13;;;20.30;77.90;;;;;;5062442;28;20299;-83
2022/06/12 02:29:47;;;;;;;5.60;3.27;;;20.20;78.60;;;;;;5084288;28;20216;-82
2022/06/12 02:32:31;;;;;;;9.17;2.80;;;20.20;78.20;;;;;;5055218;28;20649;-83
2022/06/12 02:35:07;;;;;;;4.90;3.00;;;20.20;78.40;;;;;;5069282;28;20217;-83
2022/06/12 02:37:45;;;;;;;4.10;2.70;;;20.20;78.40;;;;;;5061943;28;20271;-83
2022/06/12 02:40:38;;;;;;;4.73;2.90;;;20.10;78.40;;;;;;5079257;28;20199;-83
2022/06/12 02:43:15;;;;;;;2.93;2.73;;;20.10;78.60;;;;;;5078759;28;20598;-83
2022/06/12 02:45:53;;;;;;;7.00;2.83;;;20.00;78.70;;;;;;5080401;28;20277;-83
2022/06/12 02:48:21;;;;;;;7.83;2.83;;;20.00;78.80;;;;;;5085566;28;20227;-83
2022/06/12 02:51:24;;;;;;;3.60;3.17;;;20.00;78.70;;;;;;5066664;28;20200;-83
2022/06/12 02:54:41;;;;;;;3.90;3.10;;;20.00;78.60;;;;;;5070217;28;20276;-83
2022/06/12 02:57:34;;;;;;;4.83;3.00;;;19.90;78.60;;;;;;5077085;28;20219;-83
2022/06/12 03:00:13;;;;;;;2.93;2.73;;;19.90;78.70;;;;;;5068202;28;20255;-83
2022/06/12 03:02:52;;;;;;;3.57;2.87;;;19.90;78.90;;;;;;5059399;28;20210;-83
2022/06/12 03:05:28;;;;;;;3.97;3.53;;;19.90;79.10;;;;;;5065065;28;20283;-83
2022/06/12 03:08:03;;;;;;;4.83;3.17;;;19.90;79.70;;;;;;5077403;28;20208;-83
2022/06/12 03:10:39;;;;;;;5.43;2.97;;;19.80;80.00;;;;;;5087030;28;20200;-83
2022/06/12 03:13:10;;;;;;;4.27;3.30;;;19.80;80.40;;;;;;5058235;28;20203;-83
2022/06/12 03:15:43;;;;;;;3.87;3.10;;;19.80;80.40;;;;;;5060474;28;20258;-83
2022/06/12 03:18:24;;;;;;;4.07;3.20;;;19.80;80.50;;;;;;5056045;28;20664;-83
2022/06/12 03:21:23;;;;;;;4.30;3.10;;;19.80;80.70;;;;;;5086361;28;20211;-82
2022/06/12 03:23:56;;;;;;;7.93;3.63;;;19.80;80.90;;;;;;5084572;28;20193;-83
2022/06/12 03:26:43;;;;;;;8.03;3.10;;;19.80;80.80;;;;;;5081165;28;20221;-83
2022/06/12 03:29:26;;;;;;;5.53;3.20;;;19.70;80.80;;;;;;5068793;28;20216;-82
2022/06/12 03:32:19;;;;;;;4.03;3.10;;;19.70;80.10;;;;;;5066710;28;20291;-83
2022/06/12 03:35:09;;;;;;;3.10;2.80;;;19.70;80.20;;;;;;5078725;28;20231;-82
2022/06/12 03:38:12;;;;;;;4.57;3.43;;;19.60;80.40;;;;;;5066086;28;20584;-83
2022/06/12 03:41:03;;;;;;;3.33;3.10;;;19.60;80.80;;;;;;5059686;28;20210;-83
2022/06/12 03:43:52;;;;;;;4.90;3.20;;;19.50;81.60;;;;;;5064268;28;20259;-83
2022/06/12 03:46:44;;;;;;;3.50;3.20;;;19.50;81.00;;;;;;5064668;28;20273;-83
2022/06/12 03:49:32;;;;;;;5.60;3.70;;;19.50;81.00;;;;;;5085858;28;20273;-83
2022/06/12 03:52:15;;;;;;;3.60;3.10;;;19.40;81.20;;;;;;5085757;28;20622;-83
2022/06/12 03:55:01;;;;;;;4.93;3.70;;;19.40;81.50;;;;;;5086462;28;20199;-83
2022/06/12 03:57:52;;;;;;;3.67;3.20;;;19.40;82.00;;;;;;5068136;28;20228;-83
2022/06/12 04:00:38;;;;;;;8.93;4.30;;;19.40;82.10;;;;;;5051679;28;20213;-83
2022/06/12 04:03:20;;;;;;;6.73;3.83;;;19.40;82.50;;;;;;5065862;28;20204;-83
2022/06/12 04:05:58;;;;;;;4.60;3.70;;;19.40;82.30;;;;;;5067173;28;20544;-83
2022/06/12 04:08:39;;;;;;;5.87;4.10;;;19.40;82.40;;;;;;5079689;28;20213;-83
2022/06/12 04:11:08;;;;;;;6.10;3.77;;;19.40;82.40;;;;;;5057936;28;20208;-83
2022/06/12 04:13:37;;;;;;;5.60;3.90;;;19.40;82.50;;;;;;5093570;28;20637;-83
2022/06/12 04:16:23;;;;;;;5.53;4.47;;;19.30;82.60;;;;;;5066834;28;20308;-83
2022/06/12 04:18:51;;;;;;;4.03;3.70;;;19.40;82.90;;;;;;5069212;28;20215;-83
2022/06/12 04:21:38;;;;;;;4.00;3.67;;;19.50;82.90;;;;;;5056196;28;20207;-83
2022/06/12 04:24:33;;;;;;;4.00;3.50;;;19.50;83.10;;;;;;5071078;28;20664;-83
2022/06/12 04:27:27;;;;;;;4.83;3.60;;;19.60;83.00;;;;;;5073312;28;20245;-83
2022/06/12 04:29:57;;;;;;;7.23;3.70;;;19.60;83.10;;;;;;5068792;28;20248;-83
2022/06/12 04:32:27;;;;;;;4.23;3.60;;;19.70;83.10;;;;;;5085308;28;20215;-83
2022/06/12 04:34:54;;;;;;;6.00;4.13;;;19.80;82.90;;;;;;5056229;28;20213;-83
2022/06/12 04:37:27;;;;;;;4.80;4.07;;;19.80;82.80;;;;;;5086437;28;20210;-82
2022/06/12 04:39:57;;;;;;;4.13;3.83;;;19.90;82.90;;;;;;5079175;28;20276;-83
2022/06/12 04:42:26;;;;;;;4.67;4.20;;;20.00;83.00;;;;;;5067138;28;20244;-83
2022/06/12 04:44:56;;;;;;;5.13;4.30;;;20.10;82.90;;;;;;5066930;28;20615;-82
2022/06/12 04:47:25;;;;;;;4.83;4.33;;;20.20;82.80;;;;;;5088016;28;20201;-83
2022/06/12 04:49:53;;;;;;;7.50;3.93;;;20.30;83.00;;;;;;5073477;28;20206;-83
2022/06/12 04:52:22;;;;;;;4.80;3.40;;;20.40;83.00;;;;;;5081368;28;20537;-82
2022/06/12 04:54:50;;;;;;;5.57;3.77;;;20.50;82.80;;;;;;5070872;28;20219;-82
2022/06/12 04:57:24;;;;;;;3.70;3.40;;;20.60;82.50;;;;;;5063657;28;20208;-82
2022/06/12 04:59:53;;;;;;;4.20;3.37;;;20.70;82.10;;;;;;5081176;28;20654;-83
2022/06/12 05:02:20;;;;;;;4.60;3.20;;;20.80;81.60;;;;;;5043649;28;20295;-82
2022/06/12 05:04:47;;;;;;;4.27;3.67;;;21.00;81.10;;;;;;5085105;28;20205;-83
2022/06/12 05:07:16;;;;;;;4.20;3.77;;;21.10;80.70;;;;;;5060787;28;20297;-83
2022/06/12 05:09:47;;;;;;;5.47;3.77;;;21.20;80.40;;;;;;5084357;28;20197;-82
2022/06/12 05:12:14;;;;;;;4.10;3.07;;;21.40;80.30;;;;;;5069341;28;20316;-83
2022/06/12 05:14:42;;;;;;;4.57;3.23;;;21.60;80.10;;;;;;5068109;28;20213;-83
2022/06/12 05:17:19;;;;;;;3.93;3.20;;;21.80;79.40;;;;;;5071653;28;20208;-83
2022/06/12 05:19:46;;;;;;;4.53;3.30;;;22.20;78.50;;;;;;5047651;28;20586;-83
2022/06/12 05:22:15;;;;;;;3.77;3.00;;;22.50;77.30;;;;;;5085916;28;20220;-83
2022/06/12 05:24:44;;;;;;;4.97;2.90;;;22.80;76.00;;;;;;5052644;28;20217;-83
2022/06/12 05:27:18;;;;;;;5.50;2.63;;;22.90;74.60;;;;;;5083528;28;20210;-82
2022/06/12 05:29:46;;;;;;;5.10;3.27;;;23.10;73.90;;;;;;5075411;28;20297;-82
2022/06/12 05:32:18;;;;;;;7.13;3.40;;;23.20;74.10;;;;;;5062722;28;20206;-83
2022/06/12 05:34:46;;;;;;;3.67;3.10;;;23.20;73.10;;;;;;5084628;28;20198;-82
2022/06/12 05:37:14;;;;;;;5.13;3.20;;;23.20;73.20;;;;;;5069271;28;20206;-83
2022/06/12 05:39:42;;;;;;;3.10;2.80;;;23.30;73.10;;;;;;5062686;28;20197;-83
2022/06/12 05:42:09;;;;;;;3.67;3.33;;;23.40;73.10;;;;;;5084693;28;20264;-82
2022/06/12 05:44:37;;;;;;;3.20;2.90;;;23.50;73.20;;;;;;5062481;28;20268;-83
2022/06/12 05:47:06;;;;;;;4.47;2.90;;;23.60;73.10;;;;;;5061731;28;20230;-82
2022/06/12 05:49:33;;;;;;;3.00;2.80;;;23.80;72.50;;;;;;5041150;28;20217;-82
2022/06/12 05:52:00;;;;;;;2.50;2.30;;;23.90;71.40;;;;;;5037555;28;20536;-82
2022/06/12 05:54:28;;;;;;;3.07;2.80;;;23.90;71.30;;;;;;5062840;28;20213;-83
2022/06/12 05:56:55;;;;;;;3.87;3.30;;;24.10;71.20;;;;;;5040094;28;20674;-82
2022/06/12 05:59:23;;;;;;;3.07;2.87;;;24.30;70.60;;;;;;5049068;28;20214;-82
2022/06/12 06:01:50;;;;;;;2.93;2.53;;;24.40;69.60;;;;;;5051223;28;20273;-82
2022/06/12 06:04:18;;;;;;;4.97;3.77;;;24.50;69.60;;;;;;5060687;28;20265;-83
2022/06/12 06:06:48;;;;;;;5.67;3.93;;;24.70;69.10;;;;;;5048862;28;20692;-83
2022/06/12 06:09:16;;;;;;;4.00;3.20;;;24.80;68.60;;;;;;5060529;28;20199;-83
2022/06/12 06:11:45;;;;;;;4.83;3.23;;;25.00;68.40;;;;;;5048990;28;20203;-83
2022/06/12 06:14:12;;;;;;;4.07;3.30;;;25.20;68.20;;;;;;5062817;28;20194;-83
2022/06/12 06:16:40;;;;;;;4.03;3.53;;;25.40;67.70;;;;;;5046180;28;20229;-82
2022/06/12 06:19:11;;;;;;;7.47;4.73;;;25.50;67.40;;;;;;5037058;28;20705;-83
2022/06/12 06:21:40;;;;;;;4.93;4.30;;;25.70;67.80;;;;;;5057317;28;20653;-82
2022/06/12 06:24:09;;;;;;;8.53;5.73;;;25.80;67.10;;;;;;5044244;28;20211;-83
2022/06/12 06:26:37;;;;;;;7.53;4.60;;;25.90;65.30;;;;;;5045389;28;20640;-83
2022/06/12 06:29:05;;;;;;;9.47;4.93;;;26.10;64.80;;;;;;5039136;28;20213;-82
2022/06/12 06:31:33;;;;;;;5.20;4.43;;;26.20;64.40;;;;;;5056969;28;20718;-83
2022/06/12 06:34:04;;;;;;;7.07;4.50;;;26.40;64.30;;;;;;5055017;28;20290;-83
2022/06/12 06:36:33;;;;;;;5.70;4.07;;;26.50;64.20;;;;;;5042460;28;20203;-83
2022/06/12 06:39:00;;;;;;;5.10;3.30;;;26.70;63.50;;;;;;5049768;28;20298;-83
2022/06/12 06:41:28;;;;;;;4.03;3.60;;;26.80;62.70;;;;;;5046142;28;20283;-83
2022/06/12 06:46:41;;;;;;;4.57;3.70;;;27.10;59.70;;;;;;5060126;28;20219;-83
2022/06/12 06:49:16;;;;;;;4.47;3.50;;;27.20;58.50;;;;;;5088901;28;20195;-83
2022/06/12 06:51:43;;;;;;;4.17;3.60;;;27.30;59.30;;;;;;5077778;28;20197;-83
2022/06/12 06:54:10;;;;;;;5.10;3.60;;;27.40;59.10;;;;;;5045596;28;20209;-83
2022/06/12 06:56:38;;;;;;;6.37;3.60;;;27.40;56.70;;;;;;5078545;28;20194;-84
2022/06/12 06:59:05;;;;;;;6.97;4.20;;;27.40;57.00;;;;;;5081713;28;20233;-83
2022/06/12 07:01:35;;;;;;;4.93;3.10;;;27.40;57.20;;;;;;5059276;28;20208;-83
2022/06/12 07:04:03;;;;;;;4.37;2.97;;;27.50;57.60;;;;;;5059616;28;20205;-82
2022/06/12 07:06:30;;;;;;;4.93;3.10;;;27.60;59.00;;;;;;5062561;28;20770;-83
2022/06/12 07:08:58;;;;;;;3.40;3.10;;;27.80;59.50;;;;;;5068266;28;20208;-84
2022/06/12 07:11:27;;;;;;;5.33;3.40;;;28.00;59.60;;;;;;5085884;28;20224;-84
2022/06/12 07:13:56;;;;;;;5.07;3.97;;;28.20;59.00;;;;;;5069140;28;20205;-84
2022/06/12 07:16:24;;;;;;;4.20;3.63;;;28.40;58.20;;;;;;5069899;28;20285;-83
2022/06/12 07:18:53;;;;;;;5.03;3.90;;;28.70;57.80;;;;;;5068510;28;20252;-83
2022/06/12 07:21:23;;;;;;;4.97;3.97;;;28.80;56.50;;;;;;5067749;28;20237;-83
2022/06/12 07:23:51;;;;;;;6.20;3.53;;;29.00;56.30;;;;;;5066133;28;20218;-83
2022/06/12 07:26:23;;;;;;;4.80;3.40;;;29.20;55.80;;;;;;5065296;28;20285;-83
2022/06/12 07:28:54;;;;;;;3.43;3.13;;;29.40;54.00;;;;;;5074214;28;20201;-83
2022/06/12 07:31:22;;;;;;;5.87;3.60;;;29.50;53.20;;;;;;5064023;28;20202;-83
2022/06/12 07:33:50;;;;;;;5.10;3.40;;;29.50;53.20;;;;;;5061988;28;20218;-83
2022/06/12 07:36:19;;;;;;;4.57;3.77;;;29.50;53.50;;;;;;5082500;28;20267;-84
2022/06/12 07:38:49;;;;;;;4.60;3.23;;;29.70;53.80;;;;;;5050663;28;20587;-83
2022/06/12 07:41:37;;;;;;;4.90;2.50;;;29.80;53.50;;;;;;5059173;28;20217;-83
2022/06/12 07:44:05;;;;;;;4.50;2.67;;;30.00;52.00;;;;;;5067567;28;20229;-82
2022/06/12 07:46:33;;;;;;;6.53;2.30;;;30.20;51.40;;;;;;5078282;28;20218;-83
2022/06/12 07:49:03;;;;;;;3.67;2.00;;;30.30;49.20;;;;;;5079710;28;20202;-83
2022/06/12 07:51:30;;;;;;;2.40;2.17;;;30.40;49.70;;;;;;5080197;28;20198;-83
2022/06/12 07:53:57;;;;;;;1.80;1.70;;;30.50;48.60;;;;;;5059391;28;20296;-81
2022/06/12 07:56:25;;;;;;;2.87;2.57;;;30.70;48.40;;;;;;5063718;28;20535;-83
2022/06/12 07:58:53;;;;;;;4.87;2.87;;;30.70;47.60;;;;;;5062747;28;20211;-83
2022/06/12 08:01:24;;;;;;;2.90;2.10;;;30.70;48.50;;;;;;5067362;28;20205;-83
2022/06/12 08:03:51;;;;;;;2.97;2.30;;;30.80;47.60;;;;;;5064009;28;20211;-84
2022/06/12 08:06:20;;;;;;;9.70;2.90;;;30.80;48.10;;;;;;5079507;28;20657;-83
2022/06/12 08:08:48;;;;;;;1.77;1.67;;;31.00;48.70;;;;;;5066735;28;20218;-83
2022/06/12 08:11:16;;;;;;;6.97;1.73;;;31.10;46.60;;;;;;5066945;28;20218;-83
2022/06/12 08:13:44;;;;;;;2.90;1.70;;;31.10;47.00;;;;;;5059160;28;20212;-82
2022/06/12 08:16:11;;;;;;;3.07;2.23;;;31.30;46.80;;;;;;5065580;28;20233;-82
2022/06/12 08:18:38;;;;;;;2.40;1.70;;;31.50;46.90;;;;;;5063381;28;20202;-82
2022/06/12 08:21:09;;;;;;;4.10;1.87;;;31.60;46.50;;;;;;5074942;28;21348;-83
2022/06/12 08:23:52;;;;;;;3.27;1.70;;;31.70;45.90;;;;;;5078071;28;20205;-82
2022/06/12 08:26:24;;;;;;;1.70;1.60;;;31.80;44.90;;;;;;5083150;28;20214;-82
2022/06/12 08:28:58;;;;;;;3.53;1.50;;;31.90;43.60;;;;;;5065160;28;20274;-83
2022/06/12 08:31:30;;;;;;;3.80;1.67;;;32.00;44.40;;;;;;5080899;28;20194;-83
2022/06/12 08:34:01;;;;;;;1.53;1.43;;;32.00;43.30;;;;;;5049259;28;20235;-83
2022/06/12 08:36:30;;;;;;;1.60;1.50;;;31.90;44.10;;;;;;5065938;28;20198;-82
2022/06/12 08:38:58;;;;;;;1.57;1.47;;;31.90;44.60;;;;;;5084436;28;20603;-82
2022/06/12 08:41:28;;;;;;;3.80;1.90;;;32.00;45.00;;;;;;5062862;28;20244;-83
2022/06/12 08:44:17;;;;;;;2.30;1.70;;;32.10;43.40;;;;;;5068478;28;20245;-82
2022/06/12 08:46:56;;;;;;;3.33;1.67;;;32.10;44.30;;;;;;5063096;28;20273;-82
2022/06/12 08:49:41;;;;;;;1.60;1.50;;;32.20;43.60;;;;;;5074605;28;20210;-83
2022/06/12 08:52:20;;;;;;;1.60;1.50;;;32.30;42.70;;;;;;5061820;28;20220;-83
2022/06/12 08:55:19;;;;;;;2.67;1.50;;;32.40;42.40;;;;;;5081104;28;20214;-81
2022/06/12 08:58:02;;;;;;;2.43;1.70;;;32.40;43.10;;;;;;5073772;28;20284;-82
2022/06/12 09:00:35;;;;;;;2.50;1.40;;;32.60;43.80;;;;;;5067365;28;20534;-82
2022/06/12 09:03:11;;;;;;;3.17;1.93;;;32.70;41.90;;;;;;5066300;28;20205;-82
2022/06/12 09:05:52;;;;;;;4.50;1.70;;;32.80;41.60;;;;;;5057132;28;20210;-82
2022/06/12 09:08:40;;;;;;;3.33;1.73;;;32.80;41.20;;;;;;5071815;28;20222;-83
2022/06/12 09:11:22;;;;;;;2.70;1.23;;;32.90;41.80;;;;;;5067309;28;20216;-82
2022/06/12 09:14:18;;;;;;;3.00;1.97;;;33.10;41.90;;;;;;5074363;28;20198;-82
2022/06/12 09:17:13;;;;;;;1.50;1.40;;;33.20;41.80;;;;;;5082425;28;20210;-84
2022/06/12 09:19:59;;;;;;;1.67;1.57;;;33.30;41.50;;;;;;5087102;28;20202;-83
2022/06/12 09:22:48;;;;;;;2.17;1.27;;;33.50;41.00;;;;;;5066590;28;20202;-83
2022/06/12 09:25:31;;;;;;;2.30;1.70;;;33.50;41.30;;;;;;5067566;28;20236;-81
2022/06/12 09:28:22;;;;;;;3.33;1.63;;;33.60;41.00;;;;;;5086136;28;20214;-82
2022/06/12 09:31:05;;;;;;;1.90;1.37;;;33.70;41.20;;;;;;5064692;28;20199;-83
2022/06/12 09:33:51;;;;;;;3.27;1.73;;;33.90;41.10;;;;;;5080892;28;20186;-82
2022/06/12 09:36:45;;;;;;;5.37;1.80;;;34.00;40.30;;;;;;5088333;28;20193;-83
2022/06/12 09:39:22;;;;;;;3.93;1.60;;;34.20;39.80;;;;;;5071027;28;20205;-83
2022/06/12 09:42:17;;;;;;;1.53;1.43;;;34.20;39.50;;;;;;5053497;28;20197;-83
2022/06/12 09:45:11;;;;;;;3.17;1.90;;;34.30;39.40;;;;;;5076676;28;20206;-83
2022/06/12 09:48:17;;;;;;;1.50;1.40;;;34.30;39.50;;;;;;5056144;28;20240;-82
2022/06/12 09:50:48;;;;;;;1.47;1.40;;;34.40;38.50;;;;;;5054474;28;20291;-82
2022/06/12 09:53:34;;;;;;;1.80;1.70;;;34.40;38.90;;;;;;5069514;28;20213;-82
2022/06/12 09:56:12;;;;;;;1.60;1.50;;;34.50;39.20;;;;;;5061455;28;20205;-82
2022/06/12 09:59:02;;;;;;;2.73;1.40;;;34.60;38.00;;;;;;5067981;28;20661;-82
2022/06/12 10:01:34;;;;;;;3.23;1.20;;;34.60;36.00;;;;;;5080601;28;20204;-83
2022/06/12 10:04:27;;;;;;;1.70;1.60;;;34.60;37.60;;;;;;5071514;28;20271;-83
2022/06/12 10:07:28;;;;;;;3.27;1.60;;;34.70;37.10;;;;;;5070283;28;20238;-81
2022/06/12 10:10:06;;;;;;;1.80;1.70;;;34.70;36.80;;;;;;5033938;28;20209;-82
2022/06/12 10:12:41;;;;;;;1.77;1.67;;;34.60;34.80;;;;;;5086826;28;20205;-82
2022/06/12 10:15:19;;;;;;;1.73;1.63;;;34.40;36.10;;;;;;5063996;28;20201;-83
2022/06/12 10:17:56;;;;;;;1.60;1.50;;;34.20;36.60;;;;;;5038982;28;20232;-81
2022/06/12 10:20:32;;;;;;;6.17;1.87;;;34.30;38.10;;;;;;5083917;28;20215;-84
2022/06/12 10:23:00;;;;;;;6.00;1.83;;;34.40;38.20;;;;;;5040663;28;20236;-83
2022/06/12 10:25:34;;;;;;;5.17;1.60;;;34.50;37.10;;;;;;5069643;28;20217;-83
2022/06/12 10:28:15;;;;;;;2.03;1.70;;;34.60;37.20;;;;;;5067521;28;20240;-83
2022/06/12 10:30:47;;;;;;;2.60;1.57;;;34.80;37.60;;;;;;5047750;28;20213;-83
2022/06/12 10:33:18;;;;;;;1.33;1.20;;;34.90;37.80;;;;;;5057035;28;20224;-83
2022/06/12 10:35:55;;;;;;;1.53;1.37;;;35.00;37.70;;;;;;5082150;28;20292;-83
2022/06/12 10:38:24;;;;;;;3.23;1.50;;;35.20;37.00;;;;;;5071738;28;20198;-82
2022/06/12 10:41:05;;;;;;;1.40;1.33;;;35.30;36.80;;;;;;5047538;28;20706;-82
2022/06/12 10:43:38;;;;;;;1.90;1.30;;;35.40;36.90;;;;;;5083105;28;20233;-82
2022/06/12 10:46:14;;;;;;;2.23;1.60;;;35.40;35.80;;;;;;5067349;28;20230;-83
2022/06/12 10:48:54;;;;;;;1.57;1.47;;;35.40;36.40;;;;;;5064061;28;20764;-83
2022/06/12 10:51:23;;;;;;;3.80;1.57;;;35.50;36.10;;;;;;5076893;28;20754;-84
2022/06/12 10:54:08;;;;;;;3.30;1.57;;;35.60;36.20;;;;;;5084500;28;20198;-83
2022/06/12 10:56:41;;;;;;;1.53;1.43;;;35.60;35.60;;;;;;5065865;28;20213;-83
2022/06/12 10:59:23;;;;;;;1.77;1.60;;;35.70;36.20;;;;;;5064346;28;20202;-82
2022/06/12 11:02:14;;;;;;;1.30;1.20;;;35.70;35.90;;;;;;5055709;28;20528;-84
2022/06/12 11:05:02;;;;;;;1.83;1.70;;;35.80;36.50;;;;;;5064995;28;20229;-81
2022/06/12 11:08:06;;;;;;;2.90;1.63;;;35.80;36.10;;;;;;5076986;28;20229;-83
2022/06/12 11:10:38;;;;;;;2.80;1.60;;;35.80;36.30;;;;;;5061413;28;20221;-83
2022/06/12 11:13:25;;;;;;;1.60;1.50;;;35.90;34.70;;;;;;5066861;28;20201;-83
2022/06/12 11:16:20;;;;;;;1.60;1.50;;;35.80;36.30;;;;;;5077804;28;20209;-84
2022/06/12 11:19:34;;;;;;;3.13;1.67;;;35.80;35.90;;;;;;5065236;28;20206;-85
2022/06/12 11:22:12;;;;;;;3.47;1.53;;;35.60;35.30;;;;;;5034911;28;20631;-84
2022/06/12 11:24:58;;;;;;;3.77;1.77;;;35.40;34.50;;;;;;5034029;28;20220;-84
2022/06/12 11:27:53;;;;;;;3.13;1.50;;;35.30;35.30;;;;;;5078309;28;20210;-83
2022/06/12 11:30:55;;;;;;;2.13;1.73;;;35.20;36.70;;;;;;5057210;28;20244;-84
2022/06/12 11:33:50;;;;;;;2.53;1.40;;;35.30;36.60;;;;;;5071637;28;20209;-84
2022/06/12 11:36:21;;;;;;;3.30;1.57;;;35.20;36.00;;;;;;5063070;28;20225;-84
2022/06/12 11:39:28;;;;;;;2.27;1.60;;;35.10;34.30;;;;;;5065755;28;20201;-83
2022/06/12 11:46:02;;;;;;;3.10;1.50;;;34.90;36.80;;;;;;5061051;28;20217;-83
2022/06/12 11:48:57;;;;;;;3.43;1.80;;;35.00;36.80;;;;;;5044830;28;20665;-84
2022/06/12 11:51:54;;;;;;;1.90;1.80;;;35.20;36.40;;;;;;5042181;28;20182;-84
2022/06/12 11:54:29;;;;;;;4.07;1.83;;;35.30;35.20;;;;;;5060805;28;20220;-85
2022/06/12 11:57:44;;;;;;;2.37;1.67;;;35.30;37.60;;;;;;5059877;28;20205;-85
2022/06/12 12:00:27;;;;;;;2.83;1.47;;;35.40;35.00;;;;;;5038433;28;20225;-84
2022/06/12 12:03:09;;;;;;;3.27;1.50;;;35.40;35.70;;;;;;5039883;28;20259;-83
2022/06/12 12:05:45;;;;;;;2.23;1.37;;;35.30;35.30;;;;;;5043145;28;20313;-84
2022/06/12 12:08:37;;;;;;;2.80;1.50;;;35.10;35.50;;;;;;5045657;28;20309;-84
2022/06/12 12:11:10;;;;;;;2.00;1.50;;;34.90;35.90;;;;;;5052143;28;20220;-84
2022/06/12 12:13:42;;;;;;;3.13;1.53;;;34.70;36.90;;;;;;5044160;28;20224;-82
2022/06/12 12:17:06;;;;;;;2.10;1.73;;;34.70;37.00;;;;;;5055953;28;20209;-86
2022/06/12 12:19:39;;;;;;;2.00;1.57;;;34.90;37.70;;;;;;5005581;28;20201;-83
2022/06/12 12:22:15;;;;;;;1.33;1.33;;;35.20;36.30;;;;;;5038271;28;20218;-82
2022/06/12 12:24:48;;;;;;;1.90;1.63;;;35.30;35.50;;;;;;5010837;28;20233;-82
2022/06/12 12:27:39;;;;;;;2.73;1.40;;;35.10;34.90;;;;;;5032391;28;20231;-82
2022/06/12 12:30:19;;;;;;;1.70;1.60;;;35.10;36.00;;;;;;5044476;28;20210;-81
2022/06/12 12:32:49;;;;;;;1.87;1.77;;;35.10;35.70;;;;;;5035233;28;20195;-83
2022/06/12 12:41:13;;;;;;;1.70;1.60;;;35.30;35.30;;;;;;5057431;28;20630;-82
2022/06/12 12:43:54;;;;;;;2.93;1.40;;;35.20;33.70;;;;;;5052048;28;20570;-82
2022/06/12 12:46:25;;;;;;;3.07;1.33;;;35.00;34.50;;;;;;5066906;28;20207;-84
2022/06/12 12:48:54;;;;;;;2.30;1.40;;;34.90;35.90;;;;;;5062714;28;20279;-84
2022/06/12 12:51:36;;;;;;;4.20;1.83;;;34.80;36.00;;;;;;5059837;28;20637;-83
2022/06/12 12:54:11;;;;;;;2.50;1.50;;;34.70;37.00;;;;;;5054126;28;20290;-84
2022/06/12 12:57:04;;;;;;;1.90;1.80;;;34.60;36.80;;;;;;5063332;28;20202;-83
2022/06/12 12:59:42;;;;;;;4.90;1.70;;;34.40;36.40;;;;;;5057432;28;20211;-83
2022/06/12 13:02:20;;;;;;;3.83;1.80;;;34.20;36.70;;;;;;5079340;28;20209;-83
2022/06/12 13:04:52;;;;;;;5.60;1.47;;;34.00;38.00;;;;;;5048917;28;20194;-82
2022/06/12 13:07:41;;;;;;;4.47;1.70;;;33.90;37.80;;;;;;5063545;28;20213;-83
2022/06/12 13:10:29;;;;;;;2.07;1.60;;;33.90;36.90;;;;;;5061282;28;20672;-84
2022/06/12 13:13:09;;;;;;;1.80;1.43;;;34.00;36.90;;;;;;5066420;28;20297;-83
2022/06/12 13:16:05;;;;;;;2.80;1.50;;;34.20;36.70;;;;;;5060794;28;20203;-83
2022/06/12 13:19:08;;;;;;;1.80;1.70;;;34.50;36.10;;;;;;5059474;28;20213;-84
2022/06/12 13:22:02;;;;;;;1.80;1.70;;;34.70;37.10;;;;;;5036300;28;20217;-84
2022/06/12 13:24:37;;;;;;;1.70;1.50;;;34.90;36.00;;;;;;5080530;28;20203;-83
2022/06/12 13:27:20;;;;;;;1.60;1.50;;;35.00;35.90;;;;;;5073120;28;20222;-83
2022/06/12 13:29:50;;;;;;;2.07;1.47;;;35.00;35.10;;;;;;5062570;28;20581;-84
2022/06/12 13:32:26;;;;;;;3.60;1.50;;;35.00;35.30;;;;;;5062263;28;20530;-83
2022/06/12 13:35:43;;;;;;;2.23;1.43;;;35.10;35.50;;;;;;5045081;28;20298;-85
2022/06/12 13:38:29;;;;;;;6.57;1.87;;;35.10;33.40;;;;;;5040937;28;20207;-84
2022/06/12 13:41:28;;;;;;;2.97;1.40;;;35.00;35.20;;;;;;5071650;28;20206;-83
2022/06/12 13:43:56;;;;;;;3.00;1.50;;;34.90;35.10;;;;;;5073611;28;20252;-85
2022/06/12 13:46:30;;;;;;;1.53;1.43;;;34.90;35.50;;;;;;5080950;28;20214;-85
2022/06/12 13:49:00;;;;;;;2.20;1.53;;;34.90;34.20;;;;;;5080021;28;20214;-85
2022/06/12 13:51:56;;;;;;;2.50;1.63;;;34.90;35.50;;;;;;5077125;28;20223;-85
2022/06/12 13:54:27;;;;;;;1.90;1.73;;;34.90;34.90;;;;;;5063449;28;20217;-84
2022/06/12 13:57:10;;;;;;;2.83;1.60;;;34.80;34.80;;;;;;5065573;28;20198;-84